createdAt,value
2024-01-08T00:03:17.466Z,98968.31
2024-01-08T00:08:20.235Z,98961.72
2024-01-08T00:13:22.128Z,98965.31
2024-01-08T00:18:24.148Z,98967.66
2024-01-08T00:23:26.393Z,98966.53
2024-01-08T00:28:28.306Z,98966.38
2024-01-08T00:33:30.288Z,98967.91
2024-01-08T00:38:32.272Z,98962.72
2024-01-08T00:43:34.324Z,98962.06
2024-01-08T00:48:36.336Z,98966.09
2024-01-08T00:53:38.428Z,98967.69
2024-01-08T00:58:43.349Z,98971.81
2024-01-08T01:03:45.410Z,98970.00
2024-01-08T01:08:47.705Z,98965.88
2024-01-08T01:13:49.731Z,98973.59
2024-01-08T01:18:51.897Z,98970.97
2024-01-08T01:23:53.990Z,98973.47
2024-01-08T01:28:56.007Z,98973.31
2024-01-08T01:33:58.169Z,98973.03
2024-01-08T01:39:00.569Z,98974.81
2024-01-08T01:44:02.552Z,98974.88
2024-01-08T01:49:05.893Z,98974.97
2024-01-08T01:54:09.601Z,98972.56
2024-01-08T01:59:12.065Z,98967.69
2024-01-08T02:04:16.817Z,98973.06
2024-01-08T02:09:19.694Z,98970.72
2024-01-08T02:14:21.646Z,98976.81
2024-01-08T02:19:23.599Z,98981.63
2024-01-08T02:24:30.065Z,98985.28
2024-01-08T02:29:32.038Z,98990.75
2024-01-08T02:34:34.937Z,98994.28
2024-01-08T02:39:37.470Z,98994.41
2024-01-08T02:44:39.347Z,99000.59
2024-01-08T02:49:41.290Z,99008.31
2024-01-08T02:54:43.293Z,99015.94
2024-01-08T02:59:45.191Z,99024.66
2024-01-08T03:04:47.251Z,99026.50
2024-01-08T03:09:50.320Z,99043.78
2024-01-08T03:14:53.212Z,99053.47
2024-01-08T03:19:55.398Z,99058.03
2024-01-08T03:24:57.607Z,99065.53
2024-01-08T03:29:59.553Z,99063.81
2024-01-08T03:35:02.016Z,99073.81
2024-01-08T03:40:06.177Z,99074.41
2024-01-08T03:45:10.656Z,99088.59
2024-01-08T03:50:12.870Z,99089.75
2024-01-08T03:55:14.953Z,99097.38
2024-01-08T04:00:17.513Z,99096.16
2024-01-08T04:05:19.718Z,99107.13
2024-01-08T04:10:22.392Z,99108.66
2024-01-08T04:15:24.769Z,99122.38
2024-01-08T04:20:26.871Z,99120.72
2024-01-08T04:25:28.983Z,99127.56
2024-01-08T04:30:31.118Z,99137.13
2024-01-08T04:35:33.656Z,99138.19
2024-01-08T04:40:36.000Z,99152.09
2024-01-08T04:45:38.237Z,99160.91
2024-01-08T04:50:40.396Z,99178.44
2024-01-08T04:55:42.692Z,99184.28
2024-01-08T05:00:44.872Z,99178.06
2024-01-08T05:05:47.021Z,99188.94
2024-01-08T05:10:49.561Z,99199.38
2024-01-08T05:15:51.599Z,99210.56
2024-01-08T05:20:53.748Z,99209.09
2024-01-08T05:26:00.794Z,99217.59
2024-01-08T05:31:04.042Z,99220.53
2024-01-08T05:36:06.753Z,99226.25
2024-01-08T05:41:08.994Z,99226.00
2024-01-08T05:46:11.642Z,99230.53
2024-01-08T05:51:13.877Z,99227.22
2024-01-08T05:56:15.967Z,99238.94
2024-01-08T06:01:21.365Z,99241.63
2024-01-08T06:06:23.807Z,99244.69
2024-01-08T06:11:26.080Z,99244.75
2024-01-08T06:16:32.430Z,99255.56
2024-01-08T06:21:34.465Z,99260.06
2024-01-08T06:26:36.757Z,99265.38
2024-01-08T06:31:39.046Z,99275.66
2024-01-08T06:36:41.516Z,99270.09
2024-01-08T06:41:44.386Z,99289.63
2024-01-08T06:46:47.813Z,99296.91
2024-01-08T06:51:50.399Z,99301.56
2024-01-08T06:56:52.488Z,99311.16
2024-01-08T07:01:55.592Z,99316.19
2024-01-08T07:06:57.675Z,99334.00
2024-01-08T07:12:00.698Z,99344.31
2024-01-08T07:17:02.939Z,99337.72
2024-01-08T07:22:05.576Z,99347.41
2024-01-08T07:27:09.527Z,99348.22
2024-01-08T07:32:12.508Z,99361.16
2024-01-08T07:37:15.013Z,99360.84
2024-01-08T07:42:17.244Z,99367.13
2024-01-08T07:47:19.804Z,99364.47
2024-01-08T07:52:28.004Z,99378.69
2024-01-08T07:57:37.196Z,99380.41
2024-01-08T08:02:43.847Z,99373.06
2024-01-08T08:07:46.083Z,99387.38
2024-01-08T08:12:48.019Z,99406.38
2024-01-08T08:17:52.074Z,99390.22
2024-01-08T08:22:54.912Z,99391.72
2024-01-08T08:27:56.893Z,99406.75
2024-01-08T08:33:00.670Z,99413.22
2024-01-08T08:38:03.276Z,99413.16
2024-01-08T08:43:07.464Z,99424.66
2024-01-08T08:48:11.178Z,99427.28
2024-01-08T08:53:13.320Z,99444.81
2024-01-08T08:58:15.737Z,99450.09
2024-01-08T09:03:18.467Z,99457.78
2024-01-08T09:08:29.849Z,99465.28
2024-01-08T09:13:32.005Z,99474.47
2024-01-08T09:18:34.048Z,99483.22
2024-01-08T09:23:38.763Z,99483.78
2024-01-08T09:28:40.875Z,99488.63
2024-01-08T09:33:45.794Z,99497.00
2024-01-08T09:38:48.242Z,99510.47
2024-01-08T09:43:52.104Z,99508.72
2024-01-08T09:48:58.064Z,99507.16
2024-01-08T09:54:01.617Z,99502.06
2024-01-08T09:59:03.995Z,99506.97
2024-01-08T10:04:06.498Z,99499.41
2024-01-08T10:09:09.218Z,99503.25
2024-01-08T10:14:12.172Z,99501.16
2024-01-08T10:19:17.082Z,99502.66
2024-01-08T10:24:26.028Z,99501.91
2024-01-08T10:29:30.705Z,99494.25
2024-01-08T10:34:37.725Z,99502.69
2024-01-08T10:39:48.154Z,99501.03
2024-01-08T10:44:53.640Z,99505.28
2024-01-08T10:50:00.684Z,99508.25
2024-01-08T10:55:04.090Z,99502.09
2024-01-08T11:00:11.157Z,99509.91
2024-01-08T11:05:15.704Z,99509.38
2024-01-08T11:10:19.725Z,99523.03
2024-01-08T11:15:25.171Z,99513.75
2024-01-08T11:20:48.785Z,99525.72
2024-01-08T11:25:55.452Z,99518.03
2024-01-08T11:31:33.086Z,99516.91
2024-01-08T11:36:49.908Z,99510.78
2024-01-08T11:41:52.308Z,99514.81
2024-01-08T11:46:57.676Z,99524.84
2024-01-08T11:52:04.887Z,99513.13
2024-01-08T11:57:07.274Z,99526.66
2024-01-08T12:02:12.841Z,99532.63
2024-01-08T12:07:14.974Z,99531.69
2024-01-08T12:12:18.974Z,99538.97
2024-01-08T12:17:22.227Z,99539.22
2024-01-08T12:22:26.865Z,99536.06
2024-01-08T12:27:32.215Z,99544.47
2024-01-08T12:32:34.594Z,99552.69
2024-01-08T12:37:36.819Z,99546.22
2024-01-08T12:42:38.823Z,99550.50
2024-01-08T12:47:40.998Z,99551.28
2024-01-08T12:52:43.366Z,99542.81
2024-01-08T12:57:46.551Z,99541.84
2024-01-08T13:02:48.628Z,99551.16
2024-01-08T13:07:50.806Z,99550.56
2024-01-08T13:12:52.826Z,99536.25
2024-01-08T13:17:54.994Z,99547.09
2024-01-08T13:22:57.774Z,99558.91
2024-01-08T13:28:00.169Z,99563.91
2024-01-08T13:33:02.251Z,99571.28
2024-01-08T13:38:04.567Z,99578.94
2024-01-08T13:43:08.289Z,99578.31
2024-01-08T13:48:11.319Z,99579.56
2024-01-08T13:53:13.780Z,99591.59
2024-01-08T13:58:16.063Z,99600.06
2024-01-08T14:03:19.593Z,99600.16
2024-01-08T14:08:22.008Z,99611.00
2024-01-08T14:13:23.936Z,99612.81
2024-01-08T14:18:26.421Z,99623.75
2024-01-08T14:23:30.080Z,99628.22
2024-01-08T14:28:32.403Z,99635.09
2024-01-08T14:33:34.577Z,99641.81
2024-01-08T14:38:37.001Z,99642.56
2024-01-08T14:43:39.397Z,99635.13
2024-01-08T14:48:41.651Z,99644.69
2024-01-08T14:53:46.064Z,99649.06
2024-01-08T14:58:48.518Z,99660.38
2024-01-08T15:03:50.741Z,99666.44
2024-01-08T15:08:54.511Z,99671.44
2024-01-08T15:13:56.820Z,99679.00
2024-01-08T15:18:59.006Z,99683.19
2024-01-08T15:24:01.317Z,99693.28
2024-01-08T15:29:05.921Z,99706.94
2024-01-08T15:34:08.174Z,99731.63
2024-01-08T15:39:15.691Z,99725.81
2024-01-08T15:44:18.231Z,99738.59
2024-01-08T15:49:20.351Z,99741.22
2024-01-08T15:54:24.762Z,99743.91
2024-01-08T15:59:26.878Z,99755.84
2024-01-08T16:04:29.241Z,99760.03
2024-01-08T16:09:32.615Z,99771.91
2024-01-08T16:14:34.969Z,99778.63
2024-01-08T16:19:37.103Z,99781.91
2024-01-08T16:24:39.119Z,99781.97
2024-01-08T16:29:41.273Z,99791.19
2024-01-08T16:34:49.592Z,99794.47
2024-01-08T16:40:00.711Z,99794.47
2024-01-08T16:45:02.700Z,99798.72
2024-01-08T16:50:05.026Z,99801.22
2024-01-08T16:55:07.627Z,99801.25
2024-01-08T17:00:12.208Z,99811.34
2024-01-08T17:05:14.867Z,99815.66
2024-01-08T17:10:17.754Z,99814.03
2024-01-08T17:15:19.992Z,99809.78
2024-01-08T17:20:22.079Z,99809.72
2024-01-08T17:25:24.314Z,99807.28
2024-01-08T17:30:26.291Z,99811.59
2024-01-08T17:35:28.632Z,99815.88
2024-01-08T17:40:31.181Z,99811.59
2024-01-08T17:45:33.407Z,99808.06
2024-01-08T17:50:39.176Z,99810.47
2024-01-08T17:55:41.587Z,99808.66
2024-01-08T18:00:44.109Z,99815.28
2024-01-08T18:05:49.095Z,99811.00
2024-01-08T18:10:52.230Z,99816.91
2024-01-08T18:15:54.272Z,99821.94
2024-01-08T18:20:57.541Z,99819.44
2024-01-08T18:25:59.689Z,99825.34
2024-01-08T18:31:02.727Z,99827.88
2024-01-08T18:36:06.316Z,99836.34
2024-01-08T18:41:08.503Z,99840.59
2024-01-08T18:46:10.895Z,99854.19
2024-01-08T18:51:12.896Z,99849.28
2024-01-08T18:56:14.954Z,99862.84
2024-01-08T19:01:17.875Z,99868.72
2024-01-08T19:06:20.029Z,99872.91
2024-01-08T19:11:22.045Z,99874.75
2024-01-08T19:16:23.996Z,99876.53
2024-01-08T19:21:26.069Z,99883.31
2024-01-08T19:26:28.611Z,99890.13
2024-01-08T19:31:31.668Z,99884.28
2024-01-08T19:36:33.752Z,99886.00
2024-01-08T19:41:36.162Z,99880.91
2024-01-08T19:46:38.435Z,99887.63
2024-01-08T19:51:41.768Z,99893.66
2024-01-08T19:56:46.351Z,99902.16
2024-01-08T20:01:48.678Z,99902.19
2024-01-08T20:06:50.811Z,99903.00
2024-01-08T20:11:53.000Z,99900.63
2024-01-08T20:16:55.199Z,99915.91
2024-01-08T20:21:57.345Z,99910.91
2024-01-08T20:27:00.951Z,99906.03
2024-01-08T20:32:07.303Z,99912.13
2024-01-08T20:37:09.593Z,99919.81
2024-01-08T20:42:11.534Z,99923.22
2024-01-08T20:47:14.547Z,99924.91
2024-01-08T20:52:16.684Z,99925.84
2024-01-08T20:57:21.726Z,99932.53
2024-01-08T21:02:23.737Z,99926.59
2024-01-08T21:07:25.750Z,99925.00
2024-01-08T21:12:27.950Z,99924.25
2024-01-08T21:17:30.240Z,99937.81
2024-01-08T21:22:33.297Z,99926.16
2024-01-08T21:27:35.321Z,99929.50
2024-01-08T21:32:39.190Z,99926.16
2024-01-08T21:37:42.441Z,99942.16
2024-01-08T21:42:45.420Z,99939.63
2024-01-08T21:47:47.768Z,99946.41
2024-01-08T21:52:50.402Z,99943.88
2024-01-08T21:57:52.281Z,99950.72
2024-01-08T22:02:54.752Z,99941.50
2024-01-08T22:07:57.933Z,99941.56
2024-01-08T22:13:00.199Z,99945.97
2024-01-08T22:18:02.537Z,99948.53
2024-01-08T22:23:05.051Z,99946.06
2024-01-08T22:28:07.178Z,99947.75
2024-01-08T22:33:12.655Z,99950.28
2024-01-08T22:38:15.186Z,99954.47
2024-01-08T22:43:17.222Z,99947.63
2024-01-08T22:48:19.232Z,99952.66
2024-01-08T22:53:21.619Z,99949.25
2024-01-08T22:58:23.666Z,99951.03
2024-01-08T23:03:26.118Z,99949.44
2024-01-08T23:08:28.266Z,99946.19
2024-01-08T23:13:30.304Z,99946.19
2024-01-08T23:18:35.314Z,99953.69
2024-01-08T23:23:37.528Z,99962.16
2024-01-08T23:28:39.578Z,99960.44
2024-01-08T23:33:41.798Z,99969.78
2024-01-08T23:38:44.800Z,99964.81
2024-01-08T23:43:46.970Z,99972.50
2024-01-08T23:48:49.197Z,99979.28
2024-01-08T23:53:51.637Z,99984.28
2024-01-08T23:58:53.595Z,99975.75
